Willow Hill, Illinois
Current Conditions -  °F | °C
As of 4:35 AM on Sunday 21 Dec 2014 (Local Time) from KRSV Reporting Station
Haze Haze  
Wind Chill: 21°   Ceiling: 2700
Heat Index: 21°   Visibility: 3mi
Dew Point: 21°   Wind: 0mph
Humidity: 99%   Direction: NA
Pressure: 30.29"   Gusts: NA
Location:  39°N, 88.02°W
Report Text: KRSV 211035Z AUTO 00000KT 3SM BR OVC027 M06/M06 A3029 RMK AO2 T10591060
Loading
Personal Weather Stations






























Interactive Weather Map New forecast layout! Learn more

10-Day Weather Forecast

Advertisements
Track Severe Weather on mobile